Amber Lagoon — V7FS4 — position and weather

sailwx.info

Track history (hours):
 
Tides and Currents Weather Stations Pressure Air Temp Water Temp Dewpoint Dewpoint Depression Visibility Wind Speed Wind Dir Waves Ship Positions

Amber Lagoon

Last reported at 2015-Apr-27 23:34 UTC. Time now 2015-Apr-28 00:33 UTC.
Position N 53°33' E 008°33'.

Length 192 m; draft 7.8 m.

Type: Cargo ship. MMSI: 538090116.

Date/timePositionNaut miles runAvg speedWind from/ knotsBaromVisibWave heightAir tempDewpointWater temp
2015-Apr-27 23:34N 53°33' E 008°33'0 0.0
2015-Apr-27 22:33N 53°33' E 008°33'0 0.0
2015-Apr-27 21:33N 53°33' E 008°33'0 0.0
2015-Apr-27 20:33N 53°33' E 008°33'0 0.0
2015-Apr-27 19:33N 53°33' E 008°33'0 0.0
2015-Apr-27 18:33N 53°33' E 008°33'0 0.0
2015-Apr-27 17:33N 53°33' E 008°33'0 0.0
2015-Apr-27 16:33N 53°33' E 008°33'0 0.0
2015-Apr-27 15:33N 53°33' E 008°33'0 0.0
2015-Apr-27 14:33N 53°33' E 008°33'0 0.0
2015-Apr-27 13:33N 53°33' E 008°33'0 0.0
2015-Apr-27 12:33N 53°33' E 008°33'0 0.0
2015-Apr-27 11:33N 53°33' E 008°33'0 0.0
2015-Apr-27 10:33N 53°33' E 008°33'0 0.0
2015-Apr-27 09:33N 53°33' E 008°33'0 0.0
2015-Apr-27 08:33N 53°33' E 008°33'0 0.0
2015-Apr-27 07:33N 53°33' E 008°33'0 0.0
2015-Apr-27 06:33N 53°33' E 008°33'0 0.0
2015-Apr-27 05:33N 53°33' E 008°33'0 0.0
2015-Apr-27 04:33N 53°33' E 008°33'0 0.0
2015-Apr-27 03:33N 53°33' E 008°33'0 0.0
2015-Apr-27 02:33N 53°33' E 008°33'0 0.0
2015-Apr-27 01:33N 53°33' E 008°33'0 0.0
2015-Apr-27 00:33N 53°33' E 008°33'0 0.0
2015-Apr-26 23:33N 53°33' E 008°33'0 0.0
2015-Apr-26 22:33N 53°33' E 008°33'0 0.0
2015-Apr-26 21:33N 53°33' E 008°33'0 0.0
2015-Apr-26 20:33N 53°33' E 008°33'0 0.0
2015-Apr-26 19:33N 53°33' E 008°33'0 0.0
2015-Apr-26 18:33N 53°33' E 008°33'0 0.0
2015-Apr-26 17:33N 53°33' E 008°33'0 0.0
2015-Apr-26 16:33N 53°33' E 008°33'3 3.1
2015-Apr-26 15:33N 53°31' E 008°32'8 7.7
2015-Apr-26 14:33N 53°23' E 008°30'1 1.4
2015-Apr-26 13:34N 53°21' E 008°30'0 0.0
2015-Apr-26 12:34N 53°21' E 008°30'0 0.0
2015-Apr-26 11:33N 53°21' E 008°30'0 0.0
2015-Apr-26 10:33N 53°21' E 008°30'0 0.0
2015-Apr-26 09:33N 53°21' E 008°30'0 0.0
2015-Apr-26 08:34N 53°21' E 008°30'0 0.0
2015-Apr-26 07:34N 53°21' E 008°30'0 0.0
2015-Apr-26 06:34N 53°21' E 008°30'0 0.0
2015-Apr-26 05:34N 53°21' E 008°30'0 0.0
2015-Apr-26 04:33N 53°21' E 008°30'0 0.0
2015-Apr-26 03:33N 53°21' E 008°30'0 0.0
2015-Apr-26 02:33N 53°21' E 008°30'0 0.0
2015-Apr-26 01:34N 53°21' E 008°30'0 0.0
2015-Apr-26 00:33N 53°21' E 008°30'0 0.0
2015-Apr-25 23:33N 53°21' E 008°30'0 0.0
2015-Apr-25 22:33N 53°21' E 008°30'0 0.0
2015-Apr-25 21:33N 53°21' E 008°30'0 0.0
2015-Apr-25 20:33N 53°21' E 008°30'0 0.0
2015-Apr-25 19:33N 53°21' E 008°30'0 0.0
2015-Apr-25 18:33N 53°21' E 008°30'0 0.0
2015-Apr-25 17:33N 53°21' E 008°30'0 0.0
2015-Apr-25 16:34N 53°21' E 008°30'0 0.0
2015-Apr-25 15:33N 53°21' E 008°30'0 0.0
2015-Apr-25 14:33N 53°21' E 008°30'0 0.0
2015-Apr-25 13:34N 53°21' E 008°30'0 0.0
2015-Apr-25 12:33N 53°21' E 008°30'0 0.0
2015-Apr-25 11:33N 53°21' E 008°30'0 0.0
2015-Apr-25 10:34N 53°21' E 008°30'0 0.0
2015-Apr-25 09:33N 53°21' E 008°30'0 0.0
2015-Apr-25 08:33N 53°21' E 008°30'0 0.0
2015-Apr-25 07:33N 53°21' E 008°30'0 0.0
2015-Apr-25 06:33N 53°21' E 008°30'0 0.0
2015-Apr-25 05:33N 53°21' E 008°30'0 0.0
2015-Apr-25 04:34N 53°21' E 008°30'0 0.0
2015-Apr-25 03:33N 53°21' E 008°30'0 0.0
2015-Apr-25 02:33N 53°21' E 008°30'0 0.0
2015-Apr-25 01:34N 53°21' E 008°30'0 0.0
2015-Apr-25 00:33N 53°21' E 008°30'0 0.0
2015-Apr-24 23:34N 53°21' E 008°30'0 0.0
2015-Apr-24 22:34N 53°21' E 008°30'0 0.0
2015-Apr-24 21:33N 53°21' E 008°30'0 0.0
2015-Apr-24 20:34N 53°21' E 008°30'0 0.0
2015-Apr-24 19:33N 53°21' E 008°30'0 0.0
2015-Apr-24 18:34N 53°21' E 008°30'1 1.0
2015-Apr-24 17:33N 53°23' E 008°30'1010.1
2015-Apr-24 16:33N 53°32' E 008°34'1312.6
2015-Apr-24 15:34N 53°42' E 008°20'1111.5
2015-Apr-24 14:33N 53°50' E 008°06'1110.9
2015-Apr-24 13:33N 53°53' E 007°48'9 9.1
2015-Apr-24 12:33N 53°54' E 007°33'1010.3
2015-Apr-24 11:33N 53°52' E 007°16'2612.0
2015-Apr-24 09:24N 53°46' E 006°33'1214.3
2015-Apr-24 08:32N 53°42' E 006°13'1313.8
2015-Apr-24 07:33N 53°39' E 005°51'1413.6
2015-Apr-24 06:33N 53°34' E 005°30'1413.7
2015-Apr-24 05:33N 53°30' E 005°08'1413.8
2015-Apr-24 04:33N 53°25' E 004°46'1413.6
2015-Apr-24 03:33N 53°13' E 004°33'1414.0
2015-Apr-24 02:33N 53°01' E 004°22'1414.0
2015-Apr-24 01:33N 52°49' E 004°11'1313.4
2015-Apr-24 00:33N 52°39' E 003°55'1313.3
2015-Apr-23 23:33N 52°30' E 003°39'1414.0
2015-Apr-23 22:31N 52°16' E 003°32'1414.2
2015-Apr-23 21:33N 52°03' E 003°26'1513.4
2015-Apr-23 20:28N 51°49' E 003°18'1112.5
2015-Apr-23 19:34N 51°38' E 003°21'1413.9
2015-Apr-23 18:34N 51°27' E 003°33'1211.6
2015-Apr-23 17:33N 51°21' E 003°49'9 8.8
2015-Apr-23 16:34N 51°25' E 004°02'8 8.0
2015-Apr-23 15:33N 51°21' E 004°14'2 2.2
2015-Apr-23 14:34N 51°21' E 004°17'1 0.8
2015-Apr-23 13:33N 51°20' E 004°18'4 4.3
2015-Apr-23 12:33N 51°17' E 004°22'0 0.2
2015-Apr-23 11:33N 51°17' E 004°23'0 0.0
2015-Apr-23 10:33N 51°17' E 004°23'0 0.0
2015-Apr-23 09:33N 51°17' E 004°23'0 0.0
2015-Apr-23 08:33N 51°17' E 004°23'0 0.0
2015-Apr-23 07:33N 51°17' E 004°23'0 0.0
2015-Apr-23 06:33N 51°17' E 004°23'0 0.0
2015-Apr-23 05:33N 51°17' E 004°23'0 0.0
2015-Apr-23 04:33N 51°17' E 004°23'0 0.0
2015-Apr-23 03:33N 51°17' E 004°23'0 0.0
2015-Apr-23 02:33N 51°17' E 004°23'0 0.0
2015-Apr-23 01:33N 51°17' E 004°23'0 0.0
2015-Apr-23 00:33N 51°17' E 004°23'0 0.0
2015-Apr-22 23:33N 51°17' E 004°23'0 0.0
2015-Apr-22 22:33N 51°17' E 004°23'0 0.0
2015-Apr-22 21:33N 51°17' E 004°23'0 0.0
2015-Apr-22 20:33N 51°17' E 004°23'0 0.0
2015-Apr-22 19:33N 51°17' E 004°23'0 0.0
2015-Apr-22 18:33N 51°17' E 004°23'0 0.0
2015-Apr-22 17:33N 51°17' E 004°23'0 0.0
2015-Apr-22 16:33N 51°17' E 004°23'0 0.0
2015-Apr-22 15:33N 51°17' E 004°23'0 0.0
2015-Apr-22 14:33N 51°17' E 004°23'0 0.0
2015-Apr-22 13:33N 51°17' E 004°23'0 0.0
2015-Apr-22 12:33N 51°17' E 004°23'0 0.0
2015-Apr-22 11:33N 51°17' E 004°23'0 0.0
2015-Apr-22 10:33N 51°17' E 004°23'0 0.0
2015-Apr-22 09:33N 51°17' E 004°23'0 0.0
2015-Apr-22 08:33N 51°17' E 004°23'0 0.0
2015-Apr-22 07:27N 51°17' E 004°23'0 0.0
2015-Apr-22 06:30N 51°17' E 004°23'0 0.0
2015-Apr-22 05:33N 51°17' E 004°23'0 0.0
2015-Apr-22 04:33N 51°17' E 004°23'1 1.2
2015-Apr-22 03:33N 51°17' E 004°21'1 0.6
2015-Apr-22 02:33N 51°17' E 004°20'5 5.2
2015-Apr-22 01:33N 51°21' E 004°15'6 6.1
2015-Apr-22 00:33N 51°22' E 004°06'5 5.5
2015-Apr-21 23:33N 51°24' E 003°57'9 8.6
2015-Apr-21 22:33N 51°23' E 003°44'9 8.9
2015-Apr-21 21:33N 51°25' E 003°30'1111.2
2015-Apr-21 20:33N 51°24' E 003°12'7 7.3
2015-Apr-21 19:33N 51°30' E 003°04'1414.3
2015-Apr-21 18:32N 51°43' E 003°16'7 7.4
2015-Apr-21 17:32N 51°45' E 003°04'4 4.6
2015-Apr-21 16:33N 51°45' E 002°57'4 3.9
2015-Apr-21 15:33N 51°47' E 002°51'6 5.9
2015-Apr-21 14:33N 51°50' E 002°43'1312.7
2015-Apr-21 13:33N 52°01' E 002°32'1515.1
2015-Apr-21 12:33N 52°15' E 002°37'1615.9
2015-Apr-21 11:34N 52°31' E 002°38'1514.9
2015-Apr-21 10:33N 52°40' E 002°17'1616.0
2015-Apr-21 09:34N 52°48' E 001°54'1716.7
2015-Apr-21 08:34N 52°58' E 001°32'1716.6
2015-Apr-21 07:33N 53°12' E 001°18'1615.6
2015-Apr-21 06:33N 53°24' E 001°02'1514.7
2015-Apr-21 05:33N 53°27' E 000°38'1414.5
2015-Apr-21 04:33N 53°32' E 000°15'1110.6
2015-Apr-21 03:33N 53°37' W 000°01'6 5.9
2015-Apr-21 02:31N 53°38' W 000°11'0 0.2
2015-Apr-21 01:31N 53°38' W 000°11'0 0.0
2015-Apr-21 00:31N 53°38' W 000°11'0 0.0
2015-Apr-20 23:31N 53°38' W 000°11'0 0.0
2015-Apr-20 22:31N 53°38' W 000°11'0 0.0
2015-Apr-20 21:31N 53°38' W 000°11'0 0.0
2015-Apr-20 20:31N 53°38' W 000°11'0 0.0
2015-Apr-20 19:34N 53°38' W 000°11'0 0.0
2015-Apr-20 18:33N 53°38' W 000°11'0 0.0
2015-Apr-20 17:33N 53°38' W 000°11'0 0.0
2015-Apr-20 16:33N 53°38' W 000°11'0 0.0
2015-Apr-20 15:33N 53°38' W 000°11'0 0.0
2015-Apr-20 14:33N 53°38' W 000°11'0 0.0
2015-Apr-20 13:33N 53°38' W 000°11'0 0.0
2015-Apr-20 12:33N 53°38' W 000°11'0 0.0
2015-Apr-20 11:33N 53°38' W 000°11'0 0.0
2015-Apr-20 10:33N 53°38' W 000°11'0 0.0
2015-Apr-20 09:33N 53°38' W 000°11'0 0.0
2015-Apr-20 08:30N 53°38' W 000°11'0 0.0
2015-Apr-20 07:33N 53°38' W 000°11'0 0.0
2015-Apr-20 06:33N 53°38' W 000°11'0 0.0
2015-Apr-20 05:33N 53°38' W 000°11'0 0.0
2015-Apr-20 04:33N 53°38' W 000°11'0 0.0
2015-Apr-20 03:33N 53°38' W 000°11'0 0.0
2015-Apr-20 02:33N 53°38' W 000°11'0 0.0
2015-Apr-20 01:33N 53°38' W 000°11'0 0.0
2015-Apr-20 00:30N 53°38' W 000°11'0 0.0
2015-Apr-19 23:33N 53°38' W 000°11'0 0.0
2015-Apr-19 22:30N 53°38' W 000°11'0 0.0
2015-Apr-19 21:30N 53°38' W 000°11'0 0.0
2015-Apr-19 20:33N 53°38' W 000°11'0 0.0
2015-Apr-19 19:33N 53°38' W 000°11'0 0.0
2015-Apr-19 18:30N 53°38' W 000°11'0 0.0
2015-Apr-19 17:33N 53°38' W 000°11'0 0.0
2015-Apr-19 16:33N 53°38' W 000°11'0 0.0
2015-Apr-19 15:30N 53°38' W 000°11'0 0.0
2015-Apr-19 14:33N 53°38' W 000°11'0 0.0
2015-Apr-19 13:33N 53°38' W 000°11'0 0.0
2015-Apr-19 12:33N 53°38' W 000°11'0 0.0
2015-Apr-19 11:34N 53°38' W 000°11'0 0.0
2015-Apr-19 10:33N 53°38' W 000°11'0 0.0
2015-Apr-19 09:33N 53°38' W 000°11'0 0.0
2015-Apr-19 08:33N 53°38' W 000°11'0 0.0
2015-Apr-19 07:33N 53°38' W 000°11'0 0.0
2015-Apr-19 06:33N 53°38' W 000°11'0 0.0
2015-Apr-19 05:33N 53°38' W 000°11'0 0.0
2015-Apr-19 04:32N 53°38' W 000°11'0 0.0
2015-Apr-19 03:32N 53°38' W 000°11'0 0.0
2015-Apr-19 02:33N 53°38' W 000°11'0 0.0
2015-Apr-19 01:32N 53°38' W 000°11'0 0.0
2015-Apr-19 00:29N 53°38' W 000°11'0 0.0
2015-Apr-18 23:32N 53°38' W 000°11'0 0.0
2015-Apr-18 22:32N 53°38' W 000°11'0 0.0
2015-Apr-18 21:32N 53°38' W 000°11'0 0.0
2015-Apr-18 20:29N 53°38' W 000°11'0 0.0
2015-Apr-18 19:32N 53°38' W 000°11'0 0.0
2015-Apr-18 18:32N 53°38' W 000°11'0 0.0
2015-Apr-18 17:32N 53°38' W 000°11'0 0.0
2015-Apr-18 16:32N 53°38' W 000°11'0 0.0
2015-Apr-18 15:32N 53°38' W 000°11'0 0.0
2015-Apr-18 14:32N 53°38' W 000°11'0 0.0
2015-Apr-18 13:32N 53°38' W 000°11'0 0.0
2015-Apr-18 12:32N 53°38' W 000°11'0 0.0
2015-Apr-18 11:32N 53°38' W 000°11'0 0.0
2015-Apr-18 10:32N 53°38' W 000°11'0 0.0
2015-Apr-18 09:32N 53°38' W 000°11'0 0.0
2015-Apr-18 08:32N 53°38' W 000°11'0 0.0
2015-Apr-18 07:32N 53°38' W 000°11'0 0.0
2015-Apr-18 06:32N 53°38' W 000°11'0 0.0
2015-Apr-18 05:32N 53°38' W 000°11'0 0.0
2015-Apr-18 04:32N 53°38' W 000°11'0 0.0
2015-Apr-18 03:32N 53°38' W 000°11'0 0.0
2015-Apr-18 02:32N 53°38' W 000°11'0 0.0
2015-Apr-18 01:32N 53°38' W 000°11'0 0.0
2015-Apr-18 00:32N 53°38' W 000°11'  
Track history (hours):
 
Tides and Currents Weather Stations Pressure Air Temp Water Temp Dewpoint Dewpoint Depression Visibility Wind Speed Wind Dir Waves Ship Positions

Amber Lagoon

Last reported at 2015-Apr-27 23:34 UTC. Time now 2015-Apr-28 00:33 UTC.
Position N 53°33' E 008°33'.

Length 192 m; draft 7.8 m.

Type: Cargo ship. MMSI: 538090116.

Date/timePositionNaut miles runAvg speedWind from/ knotsBaromVisibWave heightAir tempDewpointWater temp
2015-Apr-27 23:34N 53°33' E 008°33'0 0.0
2015-Apr-27 22:33N 53°33' E 008°33'0 0.0
2015-Apr-27 21:33N 53°33' E 008°33'0 0.0
2015-Apr-27 20:33N 53°33' E 008°33'0 0.0
2015-Apr-27 19:33N 53°33' E 008°33'0 0.0
2015-Apr-27 18:33N 53°33' E 008°33'0 0.0
2015-Apr-27 17:33N 53°33' E 008°33'0 0.0
2015-Apr-27 16:33N 53°33' E 008°33'0 0.0
2015-Apr-27 15:33N 53°33' E 008°33'0 0.0
2015-Apr-27 14:33N 53°33' E 008°33'0 0.0
2015-Apr-27 13:33N 53°33' E 008°33'0 0.0
2015-Apr-27 12:33N 53°33' E 008°33'0 0.0
2015-Apr-27 11:33N 53°33' E 008°33'0 0.0
2015-Apr-27 10:33N 53°33' E 008°33'0 0.0
2015-Apr-27 09:33N 53°33' E 008°33'0 0.0
2015-Apr-27 08:33N 53°33' E 008°33'0 0.0
2015-Apr-27 07:33N 53°33' E 008°33'0 0.0
2015-Apr-27 06:33N 53°33' E 008°33'0 0.0
2015-Apr-27 05:33N 53°33' E 008°33'0 0.0
2015-Apr-27 04:33N 53°33' E 008°33'0 0.0
2015-Apr-27 03:33N 53°33' E 008°33'0 0.0
2015-Apr-27 02:33N 53°33' E 008°33'0 0.0
2015-Apr-27 01:33N 53°33' E 008°33'0 0.0
2015-Apr-27 00:33N 53°33' E 008°33'0 0.0
2015-Apr-26 23:33N 53°33' E 008°33'0 0.0
2015-Apr-26 22:33N 53°33' E 008°33'0 0.0
2015-Apr-26 21:33N 53°33' E 008°33'0 0.0
2015-Apr-26 20:33N 53°33' E 008°33'0 0.0
2015-Apr-26 19:33N 53°33' E 008°33'0 0.0
2015-Apr-26 18:33N 53°33' E 008°33'0 0.0
2015-Apr-26 17:33N 53°33' E 008°33'0 0.0
2015-Apr-26 16:33N 53°33' E 008°33'3 3.1
2015-Apr-26 15:33N 53°31' E 008°32'8 7.7
2015-Apr-26 14:33N 53°23' E 008°30'1 1.4
2015-Apr-26 13:34N 53°21' E 008°30'0 0.0
2015-Apr-26 12:34N 53°21' E 008°30'0 0.0
2015-Apr-26 11:33N 53°21' E 008°30'0 0.0
2015-Apr-26 10:33N 53°21' E 008°30'0 0.0
2015-Apr-26 09:33N 53°21' E 008°30'0 0.0
2015-Apr-26 08:34N 53°21' E 008°30'0 0.0
2015-Apr-26 07:34N 53°21' E 008°30'0 0.0
2015-Apr-26 06:34N 53°21' E 008°30'0 0.0
2015-Apr-26 05:34N 53°21' E 008°30'0 0.0
2015-Apr-26 04:33N 53°21' E 008°30'0 0.0
2015-Apr-26 03:33N 53°21' E 008°30'0 0.0
2015-Apr-26 02:33N 53°21' E 008°30'0 0.0
2015-Apr-26 01:34N 53°21' E 008°30'0 0.0
2015-Apr-26 00:33N 53°21' E 008°30'0 0.0
2015-Apr-25 23:33N 53°21' E 008°30'0 0.0
2015-Apr-25 22:33N 53°21' E 008°30'0 0.0
2015-Apr-25 21:33N 53°21' E 008°30'0 0.0
2015-Apr-25 20:33N 53°21' E 008°30'0 0.0
2015-Apr-25 19:33N 53°21' E 008°30'0 0.0
2015-Apr-25 18:33N 53°21' E 008°30'0 0.0
2015-Apr-25 17:33N 53°21' E 008°30'0 0.0
2015-Apr-25 16:34N 53°21' E 008°30'0 0.0
2015-Apr-25 15:33N 53°21' E 008°30'0 0.0
2015-Apr-25 14:33N 53°21' E 008°30'0 0.0
2015-Apr-25 13:34N 53°21' E 008°30'0 0.0
2015-Apr-25 12:33N 53°21' E 008°30'0 0.0
2015-Apr-25 11:33N 53°21' E 008°30'0 0.0
2015-Apr-25 10:34N 53°21' E 008°30'0 0.0
2015-Apr-25 09:33N 53°21' E 008°30'0 0.0
2015-Apr-25 08:33N 53°21' E 008°30'0 0.0
2015-Apr-25 07:33N 53°21' E 008°30'0 0.0
2015-Apr-25 06:33N 53°21' E 008°30'0 0.0
2015-Apr-25 05:33N 53°21' E 008°30'0 0.0
2015-Apr-25 04:34N 53°21' E 008°30'0 0.0
2015-Apr-25 03:33N 53°21' E 008°30'0 0.0
2015-Apr-25 02:33N 53°21' E 008°30'0 0.0
2015-Apr-25 01:34N 53°21' E 008°30'0 0.0
2015-Apr-25 00:33N 53°21' E 008°30'0 0.0
2015-Apr-24 23:34N 53°21' E 008°30'0 0.0
2015-Apr-24 22:34N 53°21' E 008°30'0 0.0
2015-Apr-24 21:33N 53°21' E 008°30'0 0.0
2015-Apr-24 20:34N 53°21' E 008°30'0 0.0
2015-Apr-24 19:33N 53°21' E 008°30'0 0.0
2015-Apr-24 18:34N 53°21' E 008°30'1 1.0
2015-Apr-24 17:33N 53°23' E 008°30'1010.1
2015-Apr-24 16:33N 53°32' E 008°34'1312.6
2015-Apr-24 15:34N 53°42' E 008°20'1111.5
2015-Apr-24 14:33N 53°50' E 008°06'1110.9
2015-Apr-24 13:33N 53°53' E 007°48'9 9.1
2015-Apr-24 12:33N 53°54' E 007°33'1010.3
2015-Apr-24 11:33N 53°52' E 007°16'2612.0
2015-Apr-24 09:24N 53°46' E 006°33'1214.3
2015-Apr-24 08:32N 53°42' E 006°13'1313.8
2015-Apr-24 07:33N 53°39' E 005°51'1413.6
2015-Apr-24 06:33N 53°34' E 005°30'1413.7
2015-Apr-24 05:33N 53°30' E 005°08'1413.8
2015-Apr-24 04:33N 53°25' E 004°46'1413.6
2015-Apr-24 03:33N 53°13' E 004°33'1414.0
2015-Apr-24 02:33N 53°01' E 004°22'1414.0
2015-Apr-24 01:33N 52°49' E 004°11'1313.4
2015-Apr-24 00:33N 52°39' E 003°55'1313.3
2015-Apr-23 23:33N 52°30' E 003°39'1414.0
2015-Apr-23 22:31N 52°16' E 003°32'1414.2
2015-Apr-23 21:33N 52°03' E 003°26'1513.4
2015-Apr-23 20:28N 51°49' E 003°18'1112.5
2015-Apr-23 19:34N 51°38' E 003°21'1413.9
2015-Apr-23 18:34N 51°27' E 003°33'1211.6
2015-Apr-23 17:33N 51°21' E 003°49'9 8.8
2015-Apr-23 16:34N 51°25' E 004°02'8 8.0
2015-Apr-23 15:33N 51°21' E 004°14'2 2.2
2015-Apr-23 14:34N 51°21' E 004°17'1 0.8
2015-Apr-23 13:33N 51°20' E 004°18'4 4.3
2015-Apr-23 12:33N 51°17' E 004°22'0 0.2
2015-Apr-23 11:33N 51°17' E 004°23'0 0.0
2015-Apr-23 10:33N 51°17' E 004°23'0 0.0
2015-Apr-23 09:33N 51°17' E 004°23'0 0.0
2015-Apr-23 08:33N 51°17' E 004°23'0 0.0
2015-Apr-23 07:33N 51°17' E 004°23'0 0.0
2015-Apr-23 06:33N 51°17' E 004°23'0 0.0
2015-Apr-23 05:33N 51°17' E 004°23'0 0.0
2015-Apr-23 04:33N 51°17' E 004°23'0 0.0
2015-Apr-23 03:33N 51°17' E 004°23'0 0.0
2015-Apr-23 02:33N 51°17' E 004°23'0 0.0
2015-Apr-23 01:33N 51°17' E 004°23'0 0.0
2015-Apr-23 00:33N 51°17' E 004°23'0 0.0
2015-Apr-22 23:33N 51°17' E 004°23'0 0.0
2015-Apr-22 22:33N 51°17' E 004°23'0 0.0
2015-Apr-22 21:33N 51°17' E 004°23'0 0.0
2015-Apr-22 20:33N 51°17' E 004°23'0 0.0
2015-Apr-22 19:33N 51°17' E 004°23'0 0.0
2015-Apr-22 18:33N 51°17' E 004°23'0 0.0
2015-Apr-22 17:33N 51°17' E 004°23'0 0.0
2015-Apr-22 16:33N 51°17' E 004°23'0 0.0
2015-Apr-22 15:33N 51°17' E 004°23'0 0.0
2015-Apr-22 14:33N 51°17' E 004°23'0 0.0
2015-Apr-22 13:33N 51°17' E 004°23'0 0.0
2015-Apr-22 12:33N 51°17' E 004°23'0 0.0
2015-Apr-22 11:33N 51°17' E 004°23'0 0.0
2015-Apr-22 10:33N 51°17' E 004°23'0 0.0
2015-Apr-22 09:33N 51°17' E 004°23'0 0.0
2015-Apr-22 08:33N 51°17' E 004°23'0 0.0
2015-Apr-22 07:27N 51°17' E 004°23'0 0.0
2015-Apr-22 06:30N 51°17' E 004°23'0 0.0
2015-Apr-22 05:33N 51°17' E 004°23'0 0.0
2015-Apr-22 04:33N 51°17' E 004°23'1 1.2
2015-Apr-22 03:33N 51°17' E 004°21'1 0.6
2015-Apr-22 02:33N 51°17' E 004°20'5 5.2
2015-Apr-22 01:33N 51°21' E 004°15'6 6.1
2015-Apr-22 00:33N 51°22' E 004°06'5 5.5
2015-Apr-21 23:33N 51°24' E 003°57'9 8.6
2015-Apr-21 22:33N 51°23' E 003°44'9 8.9
2015-Apr-21 21:33N 51°25' E 003°30'1111.2
2015-Apr-21 20:33N 51°24' E 003°12'7 7.3
2015-Apr-21 19:33N 51°30' E 003°04'1414.3
2015-Apr-21 18:32N 51°43' E 003°16'7 7.4
2015-Apr-21 17:32N 51°45' E 003°04'4 4.6
2015-Apr-21 16:33N 51°45' E 002°57'4 3.9
2015-Apr-21 15:33N 51°47' E 002°51'6 5.9
2015-Apr-21 14:33N 51°50' E 002°43'1312.7
2015-Apr-21 13:33N 52°01' E 002°32'1515.1
2015-Apr-21 12:33N 52°15' E 002°37'1615.9
2015-Apr-21 11:34N 52°31' E 002°38'1514.9
2015-Apr-21 10:33N 52°40' E 002°17'1616.0
2015-Apr-21 09:34N 52°48' E 001°54'1716.7
2015-Apr-21 08:34N 52°58' E 001°32'1716.6
2015-Apr-21 07:33N 53°12' E 001°18'1615.6
2015-Apr-21 06:33N 53°24' E 001°02'1514.7
2015-Apr-21 05:33N 53°27' E 000°38'1414.5
2015-Apr-21 04:33N 53°32' E 000°15'1110.6
2015-Apr-21 03:33N 53°37' W 000°01'6 5.9
2015-Apr-21 02:31N 53°38' W 000°11'0 0.2
2015-Apr-21 01:31N 53°38' W 000°11'0 0.0
2015-Apr-21 00:31N 53°38' W 000°11'0 0.0
2015-Apr-20 23:31N 53°38' W 000°11'0 0.0
2015-Apr-20 22:31N 53°38' W 000°11'0 0.0
2015-Apr-20 21:31N 53°38' W 000°11'0 0.0
2015-Apr-20 20:31N 53°38' W 000°11'0 0.0
2015-Apr-20 19:34N 53°38' W 000°11'0 0.0
2015-Apr-20 18:33N 53°38' W 000°11'0 0.0
2015-Apr-20 17:33N 53°38' W 000°11'0 0.0
2015-Apr-20 16:33N 53°38' W 000°11'0 0.0
2015-Apr-20 15:33N 53°38' W 000°11'0 0.0
2015-Apr-20 14:33N 53°38' W 000°11'0 0.0
2015-Apr-20 13:33N 53°38' W 000°11'0 0.0
2015-Apr-20 12:33N 53°38' W 000°11'0 0.0
2015-Apr-20 11:33N 53°38' W 000°11'0 0.0
2015-Apr-20 10:33N 53°38' W 000°11'0 0.0
2015-Apr-20 09:33N 53°38' W 000°11'0 0.0
2015-Apr-20 08:30N 53°38' W 000°11'0 0.0
2015-Apr-20 07:33N 53°38' W 000°11'0 0.0
2015-Apr-20 06:33N 53°38' W 000°11'0 0.0
2015-Apr-20 05:33N 53°38' W 000°11'0 0.0
2015-Apr-20 04:33N 53°38' W 000°11'0 0.0
2015-Apr-20 03:33N 53°38' W 000°11'0 0.0
2015-Apr-20 02:33N 53°38' W 000°11'0 0.0
2015-Apr-20 01:33N 53°38' W 000°11'0 0.0
2015-Apr-20 00:30N 53°38' W 000°11'0 0.0
2015-Apr-19 23:33N 53°38' W 000°11'0 0.0
2015-Apr-19 22:30N 53°38' W 000°11'0 0.0
2015-Apr-19 21:30N 53°38' W 000°11'0 0.0
2015-Apr-19 20:33N 53°38' W 000°11'0 0.0
2015-Apr-19 19:33N 53°38' W 000°11'0 0.0
2015-Apr-19 18:30N 53°38' W 000°11'0 0.0
2015-Apr-19 17:33N 53°38' W 000°11'0 0.0
2015-Apr-19 16:33N 53°38' W 000°11'0 0.0
2015-Apr-19 15:30N 53°38' W 000°11'0 0.0
2015-Apr-19 14:33N 53°38' W 000°11'0 0.0
2015-Apr-19 13:33N 53°38' W 000°11'0 0.0
2015-Apr-19 12:33N 53°38' W 000°11'0 0.0
2015-Apr-19 11:34N 53°38' W 000°11'0 0.0
2015-Apr-19 10:33N 53°38' W 000°11'0 0.0
2015-Apr-19 09:33N 53°38' W 000°11'0 0.0
2015-Apr-19 08:33N 53°38' W 000°11'0 0.0
2015-Apr-19 07:33N 53°38' W 000°11'0 0.0
2015-Apr-19 06:33N 53°38' W 000°11'0 0.0
2015-Apr-19 05:33N 53°38' W 000°11'0 0.0
2015-Apr-19 04:32N 53°38' W 000°11'0 0.0
2015-Apr-19 03:32N 53°38' W 000°11'0 0.0
2015-Apr-19 02:33N 53°38' W 000°11'0 0.0
2015-Apr-19 01:32N 53°38' W 000°11'0 0.0
2015-Apr-19 00:29N 53°38' W 000°11'0 0.0
2015-Apr-18 23:32N 53°38' W 000°11'0 0.0
2015-Apr-18 22:32N 53°38' W 000°11'0 0.0
2015-Apr-18 21:32N 53°38' W 000°11'0 0.0
2015-Apr-18 20:29N 53°38' W 000°11'0 0.0
2015-Apr-18 19:32N 53°38' W 000°11'0 0.0
2015-Apr-18 18:32N 53°38' W 000°11'0 0.0
2015-Apr-18 17:32N 53°38' W 000°11'0 0.0
2015-Apr-18 16:32N 53°38' W 000°11'0 0.0
2015-Apr-18 15:32N 53°38' W 000°11'0 0.0
2015-Apr-18 14:32N 53°38' W 000°11'0 0.0
2015-Apr-18 13:32N 53°38' W 000°11'0 0.0
2015-Apr-18 12:32N 53°38' W 000°11'0 0.0
2015-Apr-18 11:32N 53°38' W 000°11'0 0.0
2015-Apr-18 10:32N 53°38' W 000°11'0 0.0
2015-Apr-18 09:32N 53°38' W 000°11'0 0.0
2015-Apr-18 08:32N 53°38' W 000°11'0 0.0
2015-Apr-18 07:32N 53°38' W 000°11'0 0.0
2015-Apr-18 06:32N 53°38' W 000°11'0 0.0
2015-Apr-18 05:32N 53°38' W 000°11'0 0.0
2015-Apr-18 04:32N 53°38' W 000°11'0 0.0
2015-Apr-18 03:32N 53°38' W 000°11'0 0.0
2015-Apr-18 02:32N 53°38' W 000°11'0 0.0
2015-Apr-18 01:32N 53°38' W 000°11'0 0.0
2015-Apr-18 00:32N 53°38' W 000°11'  

Dump ship's entire track history